createdAt,value
2023-03-06T00:01:09.901Z,-2.80
2023-03-06T00:03:36.907Z,-2.80
2023-03-06T00:06:04.021Z,-2.80
2023-03-06T00:08:31.038Z,-2.80
2023-03-06T00:10:58.293Z,-2.80
2023-03-06T00:13:26.820Z,-2.80
2023-03-06T00:15:53.924Z,-2.90
2023-03-06T00:18:20.872Z,-2.90
2023-03-06T00:20:47.862Z,-2.90
2023-03-06T00:23:14.877Z,-2.90
2023-03-06T00:25:45.488Z,-2.90
2023-03-06T00:28:14.999Z,-3.00
2023-03-06T00:30:43.979Z,-3.00
2023-03-06T00:33:11.367Z,-2.90
2023-03-06T00:35:42.007Z,-2.90
2023-03-06T00:38:11.952Z,-3.00
2023-03-06T00:40:38.810Z,-3.00
2023-03-06T00:43:05.772Z,-3.00
2023-03-06T00:45:32.978Z,-3.10
2023-03-06T00:47:59.906Z,-3.10
2023-03-06T00:50:26.806Z,-3.10
2023-03-06T00:52:53.861Z,-3.10
2023-03-06T00:55:20.720Z,-3.20
2023-03-06T00:57:48.619Z,-3.20
2023-03-06T01:00:15.867Z,-3.20
2023-03-06T01:02:42.798Z,-3.20
2023-03-06T01:05:12.218Z,-3.20
2023-03-06T01:07:39.220Z,-3.30
2023-03-06T01:10:08.146Z,-3.40
2023-03-06T01:12:35.300Z,-3.40
2023-03-06T01:15:02.278Z,-3.50
2023-03-06T01:17:29.202Z,-3.50
2023-03-06T01:19:57.169Z,-3.60
2023-03-06T01:22:24.048Z,-3.60
2023-03-06T01:24:50.945Z,-3.60
2023-03-06T01:27:17.837Z,-3.60
2023-03-06T01:29:44.686Z,-3.60
2023-03-06T01:32:11.761Z,-3.60
2023-03-06T01:34:38.697Z,-3.60
2023-03-06T01:37:05.637Z,-3.60
2023-03-06T01:39:32.527Z,-3.60
2023-03-06T01:41:59.451Z,-3.50
2023-03-06T01:44:26.351Z,-3.60
2023-03-06T01:46:53.239Z,-3.50
2023-03-06T01:49:28.660Z,-3.50
2023-03-06T01:52:09.079Z,-3.50
2023-03-06T01:54:55.427Z,-3.50
2023-03-06T01:57:32.630Z,-3.50
2023-03-06T02:00:05.896Z,-3.40
2023-03-06T02:02:32.937Z,-3.40
2023-03-06T02:05:02.114Z,-3.40
2023-03-06T02:07:29.900Z,-3.40
2023-03-06T02:09:56.887Z,-3.40
2023-03-06T02:12:24.392Z,-3.40
2023-03-06T02:14:51.669Z,-3.40
2023-03-06T02:17:21.454Z,-3.40
2023-03-06T02:19:54.552Z,-3.40
2023-03-06T02:22:22.764Z,-3.30
2023-03-06T02:25:09.912Z,-3.40
2023-03-06T02:27:37.920Z,-3.40
2023-03-06T02:30:09.403Z,-3.40
2023-03-06T02:32:36.546Z,-3.40
2023-03-06T02:35:04.075Z,-3.40
2023-03-06T02:37:31.006Z,-3.40
2023-03-06T02:40:08.405Z,-3.40
2023-03-06T02:42:35.570Z,-3.50
2023-03-06T02:45:03.710Z,-3.50
2023-03-06T02:47:30.748Z,-3.40
2023-03-06T02:49:57.625Z,-3.40
2023-03-06T02:52:24.588Z,-3.40
2023-03-06T02:54:51.521Z,-3.50
2023-03-06T02:57:18.481Z,-3.40
2023-03-06T02:59:45.372Z,-3.50
2023-03-06T03:02:12.313Z,-3.50
2023-03-06T03:04:39.383Z,-3.50
2023-03-06T03:07:06.378Z,-3.50
2023-03-06T03:09:37.448Z,-3.60
2023-03-06T03:12:06.560Z,-3.60
2023-03-06T03:14:33.527Z,-3.70
2023-03-06T03:17:01.802Z,-3.70
2023-03-06T03:19:28.760Z,-3.70
2023-03-06T03:21:55.675Z,-3.70
2023-03-06T03:24:22.697Z,-3.70
2023-03-06T03:26:49.625Z,-3.70
2023-03-06T03:29:16.597Z,-3.70
2023-03-06T03:31:43.563Z,-3.70
2023-03-06T03:34:10.740Z,-3.70
2023-03-06T03:36:37.771Z,-3.70
2023-03-06T03:39:04.758Z,-3.70
2023-03-06T03:41:32.612Z,-3.70
2023-03-06T03:44:00.135Z,-3.70
2023-03-06T03:46:27.710Z,-3.70
2023-03-06T03:48:54.700Z,-3.70
2023-03-06T03:51:22.088Z,-3.70
2023-03-06T03:53:49.496Z,-3.70
2023-03-06T03:56:16.529Z,-3.70
2023-03-06T03:58:45.041Z,-3.70
2023-03-06T04:01:11.982Z,-3.70
2023-03-06T04:03:38.879Z,-3.80
2023-03-06T04:06:06.273Z,-3.70
2023-03-06T04:08:33.191Z,-3.70
2023-03-06T04:11:00.070Z,-3.60
2023-03-06T04:13:27.426Z,-3.50
2023-03-06T04:15:55.556Z,-3.60
2023-03-06T04:18:23.485Z,-3.60
2023-03-06T04:20:50.811Z,-3.50
2023-03-06T04:23:27.933Z,-3.50
2023-03-06T04:25:55.193Z,-3.50
2023-03-06T04:28:22.191Z,-3.50
2023-03-06T04:30:49.279Z,-3.40
2023-03-06T04:33:16.202Z,-3.50
2023-03-06T04:35:43.162Z,-3.50
2023-03-06T04:38:10.484Z,-3.50
2023-03-06T04:40:37.784Z,-3.50
2023-03-06T04:43:07.317Z,-3.40
2023-03-06T04:45:35.152Z,-3.50
2023-03-06T04:48:02.698Z,-3.50
2023-03-06T04:50:32.632Z,-3.40
2023-03-06T04:53:01.558Z,-3.50
2023-03-06T04:55:28.943Z,-3.40
2023-03-06T04:57:55.915Z,-3.30
2023-03-06T05:00:24.863Z,-3.30
2023-03-06T05:02:51.869Z,-3.40
2023-03-06T05:05:19.182Z,-3.40
2023-03-06T05:07:46.155Z,-3.50
2023-03-06T05:10:15.093Z,-3.40
2023-03-06T05:12:42.216Z,-3.50
2023-03-06T05:15:10.378Z,-3.40
2023-03-06T05:17:37.885Z,-3.40
2023-03-06T05:20:09.791Z,-3.40
2023-03-06T05:22:37.016Z,-3.50
2023-03-06T05:25:05.013Z,-3.50
2023-03-06T05:27:32.182Z,-3.50
2023-03-06T05:29:59.567Z,-3.50
2023-03-06T05:32:26.604Z,-3.50
2023-03-06T05:34:53.582Z,-3.50
2023-03-06T05:37:20.539Z,-3.50
2023-03-06T05:39:47.508Z,-3.50
2023-03-06T05:42:14.526Z,-3.50
2023-03-06T05:44:41.894Z,-3.50
2023-03-06T05:47:09.199Z,-3.60
2023-03-06T05:49:36.982Z,-3.50
2023-03-06T05:52:05.052Z,-3.50
2023-03-06T05:54:36.469Z,-3.60
2023-03-06T05:57:05.018Z,-3.50
2023-03-06T05:59:33.162Z,-3.50
2023-03-06T06:02:01.279Z,-3.50
2023-03-06T06:04:29.448Z,-3.50
2023-03-06T06:06:58.560Z,-3.40
2023-03-06T06:09:26.376Z,-3.40
2023-03-06T06:11:55.489Z,-3.40
2023-03-06T06:14:22.791Z,-3.30
2023-03-06T06:16:50.396Z,-3.10
2023-03-06T06:19:20.690Z,-3.10
2023-03-06T06:21:50.753Z,-3.00
2023-03-06T06:24:19.465Z,-2.90
2023-03-06T06:26:46.439Z,-2.80
2023-03-06T06:29:14.012Z,-2.70
2023-03-06T06:31:41.427Z,-2.60
2023-03-06T06:34:10.104Z,-2.60
2023-03-06T06:36:37.784Z,-2.60
2023-03-06T06:39:05.607Z,-2.50
2023-03-06T06:41:53.117Z,-2.40
2023-03-06T06:44:20.059Z,-2.30
2023-03-06T06:49:41.815Z,-2.20
2023-03-06T06:52:08.862Z,-2.20
2023-03-06T06:54:35.869Z,-2.20
2023-03-06T06:57:02.761Z,-2.30
2023-03-06T06:59:29.780Z,-2.20
2023-03-06T07:01:56.825Z,-2.20
2023-03-06T07:04:23.742Z,-2.20
2023-03-06T07:06:50.629Z,-2.20
2023-03-06T07:09:18.082Z,-2.20
2023-03-06T07:11:44.953Z,-2.00
2023-03-06T07:14:11.845Z,-2.00
2023-03-06T07:16:38.985Z,-1.90
2023-03-06T07:19:07.149Z,-1.80
2023-03-06T07:21:34.754Z,-1.70
2023-03-06T07:24:01.682Z,-1.50
2023-03-06T07:26:36.603Z,-1.30
2023-03-06T07:29:04.576Z,-1.10
2023-03-06T07:31:31.782Z,-0.90
2023-03-06T07:33:58.903Z,-0.70
2023-03-06T07:36:25.979Z,-0.90
2023-03-06T07:38:52.838Z,-0.80
2023-03-06T07:41:22.331Z,-0.60
2023-03-06T07:43:50.248Z,-0.80
2023-03-06T07:46:19.620Z,-1.00
2023-03-06T07:48:46.607Z,-0.80
2023-03-06T07:51:19.286Z,-0.60
2023-03-06T07:53:46.984Z,-0.30
2023-03-06T07:56:14.586Z,-0.10
2023-03-06T07:58:44.386Z,0.20
2023-03-06T08:01:15.883Z,0.60
2023-03-06T08:03:44.241Z,0.50
2023-03-06T08:06:13.643Z,0.30
2023-03-06T08:08:42.232Z,0.00
2023-03-06T08:11:10.602Z,-0.30
2023-03-06T08:13:38.341Z,-0.50
2023-03-06T08:16:06.379Z,-0.60
2023-03-06T08:18:33.507Z,-0.70
2023-03-06T08:21:06.354Z,-0.80
2023-03-06T08:23:34.592Z,-1.00
2023-03-06T08:26:07.565Z,-1.00
2023-03-06T08:28:34.812Z,-1.10
2023-03-06T08:31:10.405Z,-1.00
2023-03-06T08:33:37.566Z,-1.00
2023-03-06T08:36:04.937Z,-1.00
2023-03-06T08:38:31.859Z,-1.00
2023-03-06T08:40:58.914Z,-1.00
2023-03-06T08:43:25.905Z,-1.00
2023-03-06T08:45:54.506Z,-1.00
2023-03-06T08:48:21.473Z,-0.90
2023-03-06T08:50:48.766Z,-1.00
2023-03-06T08:53:15.876Z,-1.00
2023-03-06T08:55:42.835Z,-1.10
2023-03-06T08:58:09.828Z,-1.00
2023-03-06T09:00:37.745Z,-1.00
2023-03-06T09:03:05.967Z,-1.00
2023-03-06T09:05:33.335Z,-0.90
2023-03-06T09:08:00.297Z,-1.00
2023-03-06T09:10:27.888Z,-0.90
2023-03-06T09:12:55.167Z,-0.90
2023-03-06T09:15:23.344Z,-0.90
2023-03-06T09:17:50.986Z,-0.80
2023-03-06T09:20:18.980Z,-0.70
2023-03-06T09:22:46.352Z,-0.80
2023-03-06T09:25:14.248Z,-0.80
2023-03-06T09:27:41.575Z,-0.70
2023-03-06T09:30:11.308Z,-0.50
2023-03-06T09:32:38.291Z,-0.40
2023-03-06T09:35:05.737Z,-0.30
2023-03-06T09:37:32.925Z,-0.20
2023-03-06T09:39:59.904Z,-0.30
2023-03-06T09:42:28.837Z,-0.20
2023-03-06T09:44:58.794Z,-0.20
2023-03-06T09:47:47.211Z,-0.10
2023-03-06T09:50:26.560Z,-0.20
2023-03-06T09:53:11.266Z,-0.10
2023-03-06T09:55:40.425Z,-0.10
2023-03-06T09:58:22.410Z,-0.20
2023-03-06T10:00:52.088Z,-0.20
2023-03-06T10:03:29.568Z,-0.30
2023-03-06T10:06:01.558Z,-0.20
2023-03-06T10:08:53.106Z,-0.10
2023-03-06T10:11:31.375Z,0.00
2023-03-06T10:14:27.329Z,0.20
2023-03-06T10:16:55.138Z,0.60
2023-03-06T10:19:22.423Z,0.80
2023-03-06T10:22:00.712Z,1.10
2023-03-06T10:24:47.785Z,1.40
2023-03-06T10:27:48.695Z,1.60
2023-03-06T10:30:21.660Z,2.20
2023-03-06T10:33:01.640Z,2.10
2023-03-06T10:35:34.372Z,1.90
2023-03-06T10:38:24.015Z,2.70
2023-03-06T10:41:12.107Z,3.90
2023-03-06T10:43:44.413Z,4.80
2023-03-06T10:46:14.802Z,4.40
2023-03-06T10:48:42.745Z,4.20
2023-03-06T10:51:20.228Z,3.60
2023-03-06T10:53:54.555Z,3.30
2023-03-06T10:56:37.077Z,2.90
2023-03-06T10:59:11.445Z,2.70
2023-03-06T11:01:44.018Z,2.20
2023-03-06T11:04:25.012Z,2.50
2023-03-06T11:07:18.938Z,2.40
2023-03-06T11:09:59.277Z,2.60
2023-03-06T11:12:36.985Z,3.00
2023-03-06T11:15:18.011Z,3.00
2023-03-06T11:17:56.741Z,2.60
2023-03-06T11:20:54.343Z,2.40
2023-03-06T11:23:42.798Z,2.50
2023-03-06T11:26:20.254Z,4.10
2023-03-06T11:29:06.785Z,3.90
2023-03-06T11:32:11.078Z,4.20
2023-03-06T11:34:59.217Z,3.80
2023-03-06T11:37:49.928Z,3.20
2023-03-06T11:40:38.837Z,4.10
2023-03-06T11:43:18.081Z,4.30
2023-03-06T11:45:58.288Z,3.70
2023-03-06T11:48:31.746Z,3.40
2023-03-06T11:51:19.547Z,2.90
2023-03-06T11:53:47.249Z,2.70
2023-03-06T11:56:20.275Z,2.70
2023-03-06T11:59:11.039Z,2.50
2023-03-06T12:01:49.882Z,2.30
2023-03-06T12:04:46.519Z,2.20
2023-03-06T12:07:32.161Z,2.20
2023-03-06T12:12:50.731Z,2.10
2023-03-06T12:15:33.575Z,2.10
2023-03-06T12:18:12.361Z,2.30
2023-03-06T12:20:45.076Z,2.50
2023-03-06T12:23:32.903Z,2.80
2023-03-06T12:26:08.692Z,3.90
2023-03-06T12:28:54.120Z,4.50
2023-03-06T12:31:32.464Z,4.60
2023-03-06T12:34:23.646Z,4.90
2023-03-06T12:37:08.927Z,4.80
2023-03-06T12:40:00.697Z,4.50
2023-03-06T12:42:53.371Z,4.70
2023-03-06T12:45:26.086Z,5.20
2023-03-06T12:47:58.799Z,5.40
2023-03-06T12:50:34.396Z,5.30
2023-03-06T12:53:05.526Z,5.40
2023-03-06T12:55:45.837Z,5.10
2023-03-06T12:58:30.761Z,4.70
2023-03-06T13:01:04.545Z,4.90
2023-03-06T13:04:05.378Z,4.50
2023-03-06T13:06:54.253Z,4.40
2023-03-06T13:10:00.171Z,4.20
2023-03-06T13:13:21.815Z,4.00
2023-03-06T13:16:04.102Z,4.00
2023-03-06T13:18:33.990Z,3.90
2023-03-06T13:21:01.184Z,3.50
2023-03-06T13:23:33.978Z,3.30
2023-03-06T13:26:03.546Z,3.00
2023-03-06T13:28:50.156Z,2.90
2023-03-06T13:31:33.484Z,2.80
2023-03-06T13:34:02.983Z,3.00
2023-03-06T13:36:39.735Z,3.00
2023-03-06T13:39:11.090Z,3.00
2023-03-06T13:41:42.710Z,2.90
2023-03-06T13:44:24.664Z,3.10
2023-03-06T13:47:02.251Z,3.20
2023-03-06T13:49:29.962Z,3.10
2023-03-06T13:51:59.841Z,3.20
2023-03-06T13:54:55.106Z,3.10
2023-03-06T13:57:40.189Z,3.20
2023-03-06T14:00:16.008Z,3.10
2023-03-06T14:02:48.945Z,3.10
2023-03-06T14:05:18.634Z,2.90
2023-03-06T14:07:49.120Z,2.80
2023-03-06T14:10:26.149Z,2.40
2023-03-06T14:13:30.046Z,2.20
2023-03-06T14:15:59.269Z,2.20
2023-03-06T14:18:38.524Z,2.00
2023-03-06T14:21:11.981Z,2.10
2023-03-06T14:23:45.868Z,2.10
2023-03-06T14:26:17.791Z,2.10
2023-03-06T14:29:04.999Z,2.10
2023-03-06T14:31:41.198Z,2.00
2023-03-06T14:34:16.044Z,1.90
2023-03-06T14:36:54.931Z,1.80
2023-03-06T14:39:44.092Z,1.70
2023-03-06T14:42:24.809Z,1.70
2023-03-06T14:45:18.674Z,1.60
2023-03-06T14:47:58.594Z,1.50
2023-03-06T14:50:36.044Z,1.40
2023-03-06T14:53:21.831Z,1.40
2023-03-06T14:56:00.172Z,1.40
2023-03-06T14:58:42.262Z,1.20
2023-03-06T15:01:19.099Z,1.20
2023-03-06T15:03:57.783Z,1.20
2023-03-06T15:06:40.252Z,1.30
2023-03-06T15:09:34.617Z,1.30
2023-03-06T15:12:32.239Z,1.40
2023-03-06T15:15:13.450Z,1.40
2023-03-06T15:17:48.085Z,1.50
2023-03-06T15:20:38.665Z,1.40
2023-03-06T15:23:21.914Z,1.30
2023-03-06T15:26:01.764Z,1.30
2023-03-06T15:29:03.350Z,1.20
2023-03-06T15:31:41.516Z,1.10
2023-03-06T15:34:25.012Z,1.00
2023-03-06T15:37:18.338Z,1.00
2023-03-06T15:39:49.424Z,1.00
2023-03-06T15:42:26.123Z,0.90
2023-03-06T15:45:02.312Z,0.90
2023-03-06T15:47:31.830Z,0.90
2023-03-06T15:50:07.874Z,0.90
2023-03-06T15:52:35.290Z,0.90
2023-03-06T15:55:02.600Z,0.70
2023-03-06T15:57:29.954Z,0.90
2023-03-06T15:59:58.732Z,0.70
2023-03-06T16:02:29.156Z,0.50
2023-03-06T16:05:02.973Z,0.20
2023-03-06T16:07:45.350Z,0.20
2023-03-06T16:10:22.065Z,0.10
2023-03-06T16:12:59.879Z,0.00
2023-03-06T16:15:30.943Z,-0.10
2023-03-06T16:17:58.865Z,-0.10
2023-03-06T16:20:28.709Z,-0.10
2023-03-06T16:22:56.192Z,-0.10
2023-03-06T16:25:26.230Z,-0.20
2023-03-06T16:27:58.446Z,-0.10
2023-03-06T16:30:28.033Z,-0.20
2023-03-06T16:32:54.905Z,-0.20
2023-03-06T16:35:22.195Z,-0.20
2023-03-06T16:37:49.268Z,-0.20
2023-03-06T16:40:29.572Z,-0.20
2023-03-06T16:42:56.508Z,-0.30
2023-03-06T16:45:24.608Z,-0.40
2023-03-06T16:47:51.983Z,-0.50
2023-03-06T16:50:26.415Z,-0.60
2023-03-06T16:52:54.788Z,-0.70
2023-03-06T16:55:22.234Z,-0.80
2023-03-06T16:57:49.709Z,-0.90
2023-03-06T17:00:18.741Z,-0.90
2023-03-06T17:02:48.829Z,-0.90
2023-03-06T17:05:16.128Z,-0.90
2023-03-06T17:07:45.561Z,-1.00
2023-03-06T17:10:15.457Z,-1.00
2023-03-06T17:12:42.901Z,-1.00
2023-03-06T17:15:12.164Z,-1.00
2023-03-06T17:17:39.021Z,-1.00
2023-03-06T17:20:08.187Z,-1.00
2023-03-06T17:22:35.910Z,-1.00
2023-03-06T17:25:04.905Z,-1.00
2023-03-06T17:27:31.815Z,-1.00
2023-03-06T17:29:59.132Z,-1.00
2023-03-06T17:32:29.194Z,-1.10
2023-03-06T17:34:56.302Z,-1.10
2023-03-06T17:37:23.326Z,-1.10
2023-03-06T17:39:50.297Z,-1.10
2023-03-06T17:42:17.305Z,-1.10
2023-03-06T17:44:46.726Z,-1.10
2023-03-06T17:47:13.582Z,-1.10
2023-03-06T17:49:40.499Z,-1.10
2023-03-06T17:52:07.575Z,-1.00
2023-03-06T17:54:34.664Z,-1.10
2023-03-06T17:57:03.625Z,-1.00
2023-03-06T17:59:33.950Z,-1.10
2023-03-06T18:02:01.334Z,-1.10
2023-03-06T18:04:28.697Z,-1.00
2023-03-06T18:06:57.097Z,-1.10
2023-03-06T18:09:24.371Z,-1.10
2023-03-06T18:11:51.342Z,-1.10
2023-03-06T18:14:18.302Z,-1.10
2023-03-06T18:16:45.345Z,-1.10
2023-03-06T18:19:12.321Z,-1.10
2023-03-06T18:21:40.008Z,-1.10
2023-03-06T18:24:07.341Z,-1.10
2023-03-06T18:26:34.262Z,-1.20
2023-03-06T18:29:03.825Z,-1.20
2023-03-06T18:31:40.006Z,-1.30
2023-03-06T18:34:11.681Z,-1.30
2023-03-06T18:36:39.432Z,-1.30
2023-03-06T18:39:08.938Z,-1.30
2023-03-06T18:41:36.405Z,-1.40
2023-03-06T18:44:03.637Z,-1.40
2023-03-06T18:46:35.838Z,-1.40
2023-03-06T18:49:03.890Z,-1.40
2023-03-06T18:51:31.110Z,-1.30
2023-03-06T18:53:59.398Z,-1.30
2023-03-06T18:56:26.900Z,-1.30
2023-03-06T18:58:53.991Z,-1.30
2023-03-06T19:01:22.617Z,-1.30
2023-03-06T19:03:49.838Z,-1.30
2023-03-06T19:06:17.798Z,-1.40
2023-03-06T19:08:45.364Z,-1.40
2023-03-06T19:11:16.949Z,-1.40
2023-03-06T19:13:44.837Z,-1.40
2023-03-06T19:16:19.932Z,-1.40
2023-03-06T19:18:47.290Z,-1.50
2023-03-06T19:21:17.381Z,-1.50
2023-03-06T19:23:44.687Z,-1.50
2023-03-06T19:26:12.438Z,-1.50
2023-03-06T19:28:41.258Z,-1.50
2023-03-06T19:31:13.173Z,-1.50
2023-03-06T19:33:41.367Z,-1.50
2023-03-06T19:36:11.030Z,-1.50
2023-03-06T19:38:38.141Z,-1.50
2023-03-06T19:41:06.253Z,-1.50
2023-03-06T19:43:33.137Z,-1.50
2023-03-06T19:46:01.085Z,-1.50
2023-03-06T19:48:30.205Z,-1.60
2023-03-06T19:50:57.077Z,-1.60
2023-03-06T19:53:23.970Z,-1.70
2023-03-06T19:55:50.857Z,-1.70
2023-03-06T19:58:17.848Z,-1.70
2023-03-06T20:00:44.855Z,-1.70
2023-03-06T20:03:11.760Z,-1.70
2023-03-06T20:05:46.174Z,-1.80
2023-03-06T20:08:13.318Z,-1.80
2023-03-06T20:10:40.228Z,-1.80
2023-03-06T20:13:07.155Z,-1.80
2023-03-06T20:15:35.193Z,-1.80
2023-03-06T20:18:02.238Z,-1.80
2023-03-06T20:20:29.131Z,-1.90
2023-03-06T20:22:56.175Z,-1.90
2023-03-06T20:25:23.086Z,-1.90
2023-03-06T20:27:49.993Z,-1.90
2023-03-06T20:30:17.222Z,-2.00
2023-03-06T20:32:44.114Z,-2.00
2023-03-06T20:35:11.126Z,-2.00
2023-03-06T20:37:38.351Z,-2.00
2023-03-06T20:40:06.050Z,-2.10
2023-03-06T20:42:33.055Z,-2.00
2023-03-06T20:44:59.917Z,-2.10
2023-03-06T20:47:27.221Z,-2.10
2023-03-06T20:49:54.201Z,-2.10
2023-03-06T20:52:21.111Z,-2.10
2023-03-06T20:54:47.969Z,-2.00
2023-03-06T20:57:14.885Z,-2.00
2023-03-06T20:59:41.729Z,-2.00
2023-03-06T21:02:11.417Z,-2.10
2023-03-06T21:04:41.141Z,-2.10
2023-03-06T21:07:08.110Z,-2.10
2023-03-06T21:09:37.746Z,-2.10
2023-03-06T21:12:05.330Z,-2.10
2023-03-06T21:14:32.198Z,-2.10
2023-03-06T21:16:59.335Z,-2.10
2023-03-06T21:19:26.235Z,-2.20
2023-03-06T21:21:53.107Z,-2.10
2023-03-06T21:24:21.344Z,-2.10
2023-03-06T21:26:48.365Z,-2.20
2023-03-06T21:29:15.240Z,-2.20
2023-03-06T21:31:42.205Z,-2.20
2023-03-06T21:34:11.553Z,-2.30
2023-03-06T21:36:38.477Z,-2.30
2023-03-06T21:39:06.454Z,-2.30
2023-03-06T21:41:33.944Z,-2.30
2023-03-06T21:44:03.805Z,-2.30
2023-03-06T21:46:31.345Z,-2.20
2023-03-06T21:48:58.916Z,-2.20
2023-03-06T21:51:26.940Z,-2.20
2023-03-06T21:53:54.888Z,-2.20
2023-03-06T21:56:25.126Z,-2.20
2023-03-06T21:58:52.305Z,-2.10
2023-03-06T22:01:24.304Z,-2.20
2023-03-06T22:03:51.648Z,-2.20
2023-03-06T22:06:21.852Z,-2.20
2023-03-06T22:08:49.056Z,-2.20
2023-03-06T22:11:18.449Z,-2.20
2023-03-06T22:13:46.358Z,-2.10
2023-03-06T22:16:14.202Z,-2.10
2023-03-06T22:18:45.109Z,-2.10
2023-03-06T22:21:12.945Z,-2.10
2023-03-06T22:23:40.611Z,-2.10
2023-03-06T22:26:12.989Z,-2.20
2023-03-06T22:28:41.075Z,-2.20
2023-03-06T22:31:19.962Z,-2.20
2023-03-06T22:33:50.044Z,-2.20
2023-03-06T22:36:17.042Z,-2.20
2023-03-06T22:38:45.839Z,-2.30
2023-03-06T22:41:14.746Z,-2.30
2023-03-06T22:43:42.374Z,-2.30
2023-03-06T22:46:14.615Z,-2.30
2023-03-06T22:48:42.186Z,-2.40
2023-03-06T22:51:15.566Z,-2.50
2023-03-06T22:53:43.135Z,-2.50
2023-03-06T22:56:13.194Z,-2.50
2023-03-06T22:58:40.995Z,-2.50
2023-03-06T23:01:13.521Z,-2.60
2023-03-06T23:03:43.152Z,-2.50
2023-03-06T23:06:12.877Z,-2.60
2023-03-06T23:08:43.090Z,-2.60
2023-03-06T23:11:15.576Z,-2.60
2023-03-06T23:13:42.857Z,-2.60
2023-03-06T23:16:10.194Z,-2.60
2023-03-06T23:18:38.792Z,-2.60
2023-03-06T23:21:07.915Z,-2.60
2023-03-06T23:23:35.325Z,-2.70
2023-03-06T23:26:02.271Z,-2.70
2023-03-06T23:28:29.221Z,-2.70
2023-03-06T23:30:56.180Z,-2.70
2023-03-06T23:33:23.208Z,-2.80
2023-03-06T23:35:50.262Z,-2.90
2023-03-06T23:38:17.395Z,-3.00
2023-03-06T23:40:44.307Z,-3.10
2023-03-06T23:43:11.206Z,-3.10
2023-03-06T23:45:38.144Z,-3.10
2023-03-06T23:48:07.543Z,-3.20
2023-03-06T23:50:34.464Z,-3.20
2023-03-06T23:53:01.432Z,-3.20
2023-03-06T23:55:28.427Z,-3.20
2023-03-06T23:57:55.787Z,-3.20
